Time;durP1;ratioP1;P1;durP2;ratioP2;P2;SDS_P1;SDS_P2;PMS_P1;PMS_P2;Temp;Humidity;BMP_temperature;BMP_pressure;BME280_temperature;BME280_humidity;BME280_pressure;Samples;Min_cycle;Max_cycle;Signal;HPM_P1;HPM_P2
2023/10/24 00:01:38;;;;;;;4.95;2.45;;;;;;;12.64;53.76;99946.66;4969833;28;20184;-75
2023/10/24 00:04:06;;;;;;;3.75;1.70;;;;;;;12.64;53.27;99949.38;4986571;28;20185;-74
2023/10/24 00:06:34;;;;;;;3.83;1.95;;;;;;;12.64;53.63;99952.13;4993593;28;20739;-75
2023/10/24 00:09:04;;;;;;;3.50;2.10;;;;;;;12.65;53.66;99941.00;4997567;28;20926;-75
2023/10/24 00:11:33;;;;;;;3.95;1.88;;;;;;;12.66;53.58;99947.34;5000110;28;20477;-74
2023/10/24 00:14:02;;;;;;;4.70;1.88;;;;;;;12.67;53.12;99946.31;4968857;28;20573;-75
2023/10/24 00:16:31;;;;;;;3.28;1.70;;;;;;;12.66;53.23;99948.22;4985534;28;20993;-74
2023/10/24 00:18:59;;;;;;;4.03;1.98;;;;;;;12.67;53.23;99938.09;4998870;28;20537;-74
2023/10/24 00:21:26;;;;;;;3.95;2.25;;;;;;;12.67;53.20;99955.41;4968126;28;20741;-75
2023/10/24 00:23:54;;;;;;;3.38;1.85;;;;;;;12.67;53.18;99938.94;4987674;28;20675;-74
2023/10/24 00:26:22;;;;;;;3.35;1.80;;;;;;;12.67;53.53;99930.72;4969199;28;20958;-75
2023/10/24 00:28:51;;;;;;;3.25;1.80;;;;;;;12.68;53.64;99924.19;4998575;28;20042;-74
2023/10/24 00:31:20;;;;;;;3.80;1.83;;;;;;;12.71;53.17;99922.97;4969514;28;20428;-74
2023/10/24 00:33:48;;;;;;;3.55;1.80;;;;;;;12.70;53.27;99913.91;4969065;28;20049;-74
2023/10/24 00:36:16;;;;;;;3.47;1.80;;;;;;;12.70;53.44;99922.16;4987830;28;20050;-75
2023/10/24 00:38:44;;;;;;;3.38;1.77;;;;;;;12.71;53.35;99923.84;4998597;28;20050;-74
2023/10/24 00:41:12;;;;;;;3.90;1.75;;;;;;;12.71;53.47;99912.84;4999383;28;20454;-74
2023/10/24 00:43:40;;;;;;;2.78;1.73;;;;;;;12.73;53.58;99918.19;4968924;28;20581;-74
2023/10/24 00:46:10;;;;;;;3.47;1.60;;;;;;;12.75;53.38;99927.97;4987875;28;20049;-75
2023/10/24 00:48:40;;;;;;;2.90;1.88;;;;;;;12.76;53.04;99924.19;4968955;28;20062;-74
2023/10/24 00:51:08;;;;;;;3.80;1.77;;;;;;;12.76;53.47;99909.59;4969211;28;21108;-74
2023/10/24 00:53:37;;;;;;;2.67;1.85;;;;;;;12.75;53.57;99927.97;4987754;28;20046;-74
2023/10/24 00:56:06;;;;;;;4.03;1.80;;;;;;;12.76;53.46;99932.44;4969695;28;20042;-74
2023/10/24 00:58:36;;;;;;;5.50;1.60;;;;;;;12.77;53.10;99930.53;4967633;28;20505;-74
2023/10/24 01:01:09;;;;;;;3.17;1.77;;;;;;;12.78;53.06;99933.13;4987233;28;20169;-75
2023/10/24 01:03:38;;;;;;;3.35;1.70;;;;;;;12.77;53.43;99947.88;4985695;28;20062;-74
2023/10/24 01:06:09;;;;;;;2.97;1.80;;;;;;;12.79;53.24;99948.53;4965842;28;20493;-74
2023/10/24 01:08:37;;;;;;;6.78;2.00;;;;;;;12.79;53.33;99951.28;5002969;28;20058;-74
2023/10/24 01:11:08;;;;;;;3.80;1.70;;;;;;;12.79;53.54;99948.53;4987713;28;20057;-74
2023/10/24 01:13:37;;;;;;;2.92;1.67;;;;;;;12.81;53.16;99943.75;5000277;28;20056;-74
2023/10/24 01:16:05;;;;;;;3.63;1.60;;;;;;;12.81;53.43;99946.50;4999657;28;20403;-74
2023/10/24 01:18:33;;;;;;;2.58;1.58;;;;;;;12.81;53.59;99932.75;4986864;28;20145;-74
2023/10/24 01:21:01;;;;;;;3.15;1.70;;;;;;;12.82;53.39;99936.38;4970594;28;21049;-75
2023/10/24 01:23:31;;;;;;;2.65;1.60;;;;;;;12.84;53.37;99928.81;4986676;28;20730;-74
2023/10/24 01:26:00;;;;;;;3.28;1.88;;;;;;;12.83;53.05;99924.38;4986766;28;20054;-74
2023/10/24 01:28:30;;;;;;;3.90;1.70;;;;;;;12.85;53.04;99925.06;4968873;28;20054;-74
2023/10/24 01:30:57;;;;;;;2.97;1.70;;;;;;;12.82;53.30;99926.25;4984681;28;20631;-74
2023/10/24 01:33:25;;;;;;;4.13;1.67;;;;;;;12.83;53.56;99921.63;4986301;28;20535;-74
2023/10/24 01:35:54;;;;;;;3.83;1.60;;;;;;;12.83;53.54;99925.22;4969442;28;20065;-74
2023/10/24 01:38:22;;;;;;;3.42;1.70;;;;;;;12.84;53.39;99928.81;4967556;28;20058;-74
2023/10/24 01:40:52;;;;;;;3.22;1.60;;;;;;;12.86;53.19;99932.28;4968708;28;20050;-74
2023/10/24 01:43:20;;;;;;;2.95;1.60;;;;;;;12.84;53.06;99931.56;4968754;28;20439;-74
2023/10/24 01:45:48;;;;;;;2.97;1.70;;;;;;;12.85;53.56;99928.66;4987015;28;20050;-75
2023/10/24 01:48:16;;;;;;;4.28;1.77;;;;;;;12.86;53.52;99924.88;4968080;28;20490;-74
2023/10/24 01:50:44;;;;;;;3.90;1.60;;;;;;;12.86;53.54;99921.28;4967542;28;20056;-74
2023/10/24 01:53:12;;;;;;;3.78;1.65;;;;;;;12.86;53.40;99919.41;4987109;28;20065;-75
2023/10/24 01:55:40;;;;;;;2.22;1.45;;;;;;;12.88;53.39;99917.31;4986418;28;20096;-74
2023/10/24 01:58:09;;;;;;;2.45;1.45;;;;;;;12.90;53.10;99919.03;4966831;28;20128;-75
2023/10/24 02:00:37;;;;;;;2.90;1.80;;;;;;;12.88;53.64;99919.19;4968538;28;20548;-74
2023/10/24 02:03:05;;;;;;;2.65;1.48;;;;;;;12.90;53.50;99916.28;4986992;28;20064;-74
2023/10/24 02:05:33;;;;;;;2.97;1.50;;;;;;;12.88;53.03;99908.22;4970127;28;20135;-74
2023/10/24 02:08:02;;;;;;;3.83;1.70;;;;;;;12.90;53.20;99908.03;4985160;28;20049;-74
2023/10/24 02:10:30;;;;;;;3.65;1.80;;;;;;;12.91;53.41;99918.88;4966818;28;20054;-75
2023/10/24 02:12:58;;;;;;;2.92;1.85;;;;;;;12.91;53.13;99934.50;4968871;28;20050;-75
2023/10/24 02:15:28;;;;;;;2.72;1.50;;;;;;;12.92;53.42;99934.31;4967956;28;20061;-74
2023/10/24 02:17:56;;;;;;;3.58;1.60;;;;;;;12.90;53.37;99928.13;4983911;28;20568;-74
2023/10/24 02:20:24;;;;;;;4.38;1.92;;;;;;;12.91;53.44;99935.34;4985310;28;20077;-74
2023/10/24 02:22:52;;;;;;;3.80;1.90;;;;;;;12.92;53.40;99938.94;4967346;28;20051;-74
2023/10/24 02:25:20;;;;;;;4.45;2.30;;;;;;;12.91;53.07;99946.34;4966184;28;20053;-74
2023/10/24 02:27:48;;;;;;;3.08;1.67;;;;;;;12.92;53.40;99948.06;4985290;28;20154;-75
2023/10/24 02:30:16;;;;;;;3.92;2.03;;;;;;;12.93;53.27;99937.94;4968033;28;20053;-74
2023/10/24 02:32:45;;;;;;;2.85;1.75;;;;;;;12.94;52.95;99942.41;4985648;28;20052;-74
2023/10/24 02:35:14;;;;;;;3.03;1.50;;;;;;;12.92;53.36;99933.47;4982307;28;20525;-74
2023/10/24 02:37:41;;;;;;;2.88;1.80;;;;;;;12.92;53.12;99950.78;4966497;28;20118;-75
2023/10/24 02:40:11;;;;;;;4.03;1.80;;;;;;;12.92;52.76;99956.28;4984783;28;21367;-75
2023/10/24 02:42:39;;;;;;;2.67;1.60;;;;;;;12.92;53.18;99970.03;4987561;28;20581;-74
2023/10/24 02:45:08;;;;;;;2.50;1.90;;;;;;;12.91;52.86;99967.44;4986428;28;20056;-74
2023/10/24 02:47:36;;;;;;;3.13;1.65;;;;;;;12.90;52.98;99952.84;4986232;28;20574;-74
2023/10/24 02:50:08;;;;;;;3.83;1.77;;;;;;;12.94;53.05;99956.13;4983990;28;20060;-74
2023/10/24 02:52:37;;;;;;;3.85;1.80;;;;;;;12.90;53.20;99966.56;4999683;28;20825;-74
2023/10/24 02:55:07;;;;;;;3.15;1.60;;;;;;;12.92;53.15;99964.53;4984282;28;20073;-74
2023/10/24 02:57:35;;;;;;;2.75;1.60;;;;;;;12.91;53.34;99950.97;4987577;28;20053;-74
2023/10/24 03:00:04;;;;;;;5.10;1.67;;;;;;;12.91;53.22;99961.94;4965750;28;20413;-74
2023/10/24 03:02:32;;;;;;;4.03;1.73;;;;;;;12.91;52.80;99973.78;4968862;28;20061;-74
2023/10/24 03:05:00;;;;;;;2.90;1.67;;;;;;;12.90;53.28;99947.34;4985548;28;20073;-74
2023/10/24 03:07:30;;;;;;;3.25;1.50;;;;;;;12.93;52.92;99941.53;4986152;28;20060;-75
2023/10/24 03:09:58;;;;;;;2.28;1.40;;;;;;;12.90;52.73;99952.84;4982624;28;20159;-74
2023/10/24 03:12:26;;;;;;;2.60;1.58;;;;;;;12.90;53.17;99961.09;4969272;28;20138;-74
2023/10/24 03:14:55;;;;;;;2.17;1.50;;;;;;;12.90;52.98;99958.34;4967726;28;20565;-74
2023/10/24 03:17:23;;;;;;;2.67;1.65;;;;;;;12.90;53.34;99952.84;4969893;28;20589;-74
2023/10/24 03:19:52;;;;;;;3.60;1.50;;;;;;;12.91;52.88;99970.19;4983124;28;20732;-74
2023/10/24 03:22:21;;;;;;;2.92;1.50;;;;;;;12.90;53.47;99965.72;4988715;28;20050;-75
2023/10/24 03:24:50;;;;;;;2.42;1.42;;;;;;;12.91;52.90;99971.03;4983043;28;20127;-74
2023/10/24 03:27:18;;;;;;;2.58;1.50;;;;;;;12.90;53.20;99984.94;4987374;28;20515;-74
2023/10/24 03:29:47;;;;;;;2.33;1.33;;;;;;;12.87;53.31;99976.00;4985411;28;20140;-74
2023/10/24 03:32:16;;;;;;;3.42;1.40;;;;;;;12.86;53.27;99960.59;4970784;28;20049;-74
2023/10/24 03:34:44;;;;;;;2.20;1.05;;;;;;;12.86;53.20;99962.47;4970819;28;20724;-74
2023/10/24 03:37:12;;;;;;;2.28;1.38;;;;;;;12.86;53.30;99970.72;4988144;28;20457;-74
2023/10/24 03:39:41;;;;;;;1.88;1.10;;;;;;;12.86;53.71;99962.47;4985996;28;20482;-74
2023/10/24 03:42:13;;;;;;;2.35;0.95;;;;;;;12.85;53.40;99945.13;4987498;28;20144;-75
2023/10/24 03:44:41;;;;;;;2.45;1.15;;;;;;;12.82;53.33;99966.56;4990562;28;20073;-75
2023/10/24 03:47:09;;;;;;;1.55;1.10;;;;;;;12.81;53.65;99960.22;4991210;28;20416;-75
2023/10/24 03:49:37;;;;;;;2.28;1.20;;;;;;;12.81;53.16;99951.13;4970931;28;20065;-74
2023/10/24 03:52:06;;;;;;;2.17;1.10;;;;;;;12.81;53.06;99942.88;4989490;28;20415;-75
2023/10/24 03:54:34;;;;;;;3.17;1.20;;;;;;;12.80;53.16;99952.16;4969766;28;20154;-75
2023/10/24 03:57:02;;;;;;;1.67;1.10;;;;;;;12.80;53.50;99966.75;4987399;28;20081;-75
2023/10/24 03:59:32;;;;;;;2.38;1.10;;;;;;;12.80;53.34;99953.00;4987925;28;20149;-74
2023/10/24 04:02:00;;;;;;;1.60;1.00;;;;;;;12.79;53.33;99943.06;4972340;28;20053;-74
2023/10/24 04:04:30;;;;;;;1.73;1.00;;;;;;;12.80;53.24;99950.25;4999287;28;20054;-74
2023/10/24 04:06:59;;;;;;;2.65;1.13;;;;;;;12.79;53.27;99950.44;4989481;28;20052;-74
2023/10/24 04:09:27;;;;;;;2.15;1.00;;;;;;;12.78;53.50;99957.84;4987666;28;20917;-74
2023/10/24 04:12:07;;;;;;;2.08;1.15;;;;;;;12.79;53.27;99970.50;4971275;28;20058;-75
2023/10/24 04:14:36;;;;;;;2.03;0.88;;;;;;;12.80;53.03;99963.13;4988903;28;20082;-75
2023/10/24 04:17:05;;;;;;;2.30;1.17;;;;;;;12.78;53.10;99949.59;4987384;28;20104;-75
2023/10/24 04:19:33;;;;;;;1.85;1.00;;;;;;;12.78;53.23;99930.38;4986244;28;20051;-75
2023/10/24 04:22:02;;;;;;;1.33;0.95;;;;;;;12.77;53.29;99939.66;4978261;28;20465;-75
2023/10/24 04:24:30;;;;;;;1.50;0.80;;;;;;;12.78;53.13;99940.50;4969512;28;20050;-75
2023/10/24 04:26:58;;;;;;;1.85;0.80;;;;;;;12.78;53.48;99954.22;4972075;28;20062;-75
2023/10/24 04:29:27;;;;;;;2.38;0.80;;;;;;;12.77;53.18;99955.25;4987408;28;21716;-74
2023/10/24 04:31:57;;;;;;;1.83;0.70;;;;;;;12.77;52.90;99963.50;4986756;28;20153;-75
2023/10/24 04:34:25;;;;;;;1.95;0.80;;;;;;;12.76;53.24;99968.13;5002758;28;21029;-75
2023/10/24 04:36:54;;;;;;;1.80;0.80;;;;;;;12.76;53.44;99961.78;4988142;28;20066;-74
2023/10/24 04:39:25;;;;;;;2.60;1.33;;;;;;;12.76;53.26;99956.28;4998541;28;20113;-74
2023/10/24 04:41:53;;;;;;;1.33;0.75;;;;;;;12.75;52.74;99969.16;4971251;28;20046;-74
2023/10/24 04:44:21;;;;;;;1.05;0.73;;;;;;;12.75;53.30;99969.16;4988588;28;20742;-74
2023/10/24 04:46:50;;;;;;;1.42;0.85;;;;;;;12.75;53.40;99962.81;4988975;28;20052;-74
2023/10/24 04:49:20;;;;;;;2.33;1.00;;;;;;;12.76;53.19;99972.75;4984769;28;20061;-75
2023/10/24 04:51:48;;;;;;;1.42;0.80;;;;;;;12.73;52.80;99946.50;4969722;28;20105;-75
2023/10/24 04:54:17;;;;;;;1.65;0.80;;;;;;;12.75;52.93;99951.81;4985256;28;20596;-74
2023/10/24 04:56:45;;;;;;;1.60;0.90;;;;;;;12.74;53.05;99947.34;4988446;28;20612;-75
2023/10/24 04:59:15;;;;;;;1.25;0.70;;;;;;;12.73;53.19;99951.97;4966809;28;20562;-74
2023/10/24 05:01:44;;;;;;;2.30;0.73;;;;;;;12.74;53.20;99953.69;4989014;28;20118;-75
2023/10/24 05:04:12;;;;;;;1.73;0.80;;;;;;;12.73;52.83;99951.97;4969933;28;20068;-74
2023/10/24 05:06:41;;;;;;;2.20;0.80;;;;;;;12.75;52.85;99954.56;5001277;28;20061;-74
2023/10/24 05:09:10;;;;;;;1.33;0.75;;;;;;;12.73;53.47;99965.72;4967932;28;20513;-72
2023/10/24 05:11:39;;;;;;;1.90;0.80;;;;;;;12.73;52.96;99951.97;4986850;28;20481;-76
2023/10/24 05:14:07;;;;;;;1.65;1.08;;;;;;;12.74;53.46;99958.34;4984572;28;20433;-74
2023/10/24 05:16:35;;;;;;;1.13;0.80;;;;;;;12.74;53.28;99955.59;4998585;28;20061;-74
2023/10/24 05:19:03;;;;;;;1.15;0.70;;;;;;;12.74;52.86;99955.59;4961331;28;20413;-74
2023/10/24 05:21:31;;;;;;;2.10;0.80;;;;;;;12.74;53.42;99950.09;4963737;28;20050;-74
2023/10/24 05:24:00;;;;;;;0.63;0.60;;;;;;;12.76;53.30;99940.66;4980922;28;20038;-74
2023/10/24 05:26:28;;;;;;;1.80;0.90;;;;;;;12.73;52.94;99935.50;4980154;28;21321;-74
2023/10/24 05:28:56;;;;;;;1.25;0.80;;;;;;;12.73;52.80;99938.25;4961155;28;20046;-74
2023/10/24 05:31:24;;;;;;;1.08;0.70;;;;;;;12.73;52.85;99931.91;4964470;28;20387;-74
2023/10/24 05:33:53;;;;;;;1.77;0.80;;;;;;;12.73;53.32;99942.88;4964393;28;20160;-74
2023/10/24 05:36:21;;;;;;;1.75;0.85;;;;;;;12.72;53.23;99938.41;4982014;28;20050;-75
2023/10/24 05:38:48;;;;;;;1.85;0.70;;;;;;;12.73;53.13;99951.13;4980238;28;20710;-75
2023/10/24 05:41:18;;;;;;;1.50;0.80;;;;;;;12.73;52.88;99962.97;4979731;28;20057;-75
2023/10/24 05:43:46;;;;;;;2.13;1.00;;;;;;;12.71;52.95;99967.75;4981330;28;20068;-74
2023/10/24 05:46:14;;;;;;;1.75;1.00;;;;;;;12.71;52.44;99967.75;4979589;28;20480;-74
2023/10/24 05:48:42;;;;;;;1.88;1.10;;;;;;;12.72;52.34;99968.63;4968499;28;20038;-74
2023/10/24 05:51:10;;;;;;;2.88;1.10;;;;;;;12.70;52.61;99968.81;4980380;28;20521;-74
2023/10/24 05:53:38;;;;;;;2.30;1.00;;;;;;;12.69;52.42;99961.59;4982141;28;20069;-74
2023/10/24 05:56:07;;;;;;;2.42;1.20;;;;;;;12.70;52.15;99966.06;4980571;28;20569;-73
2023/10/24 05:58:36;;;;;;;3.38;1.00;;;;;;;12.69;52.27;99958.84;4980559;28;20046;-74
2023/10/24 06:01:05;;;;;;;2.05;1.08;;;;;;;12.68;51.85;99951.66;4981606;28;20504;-74
2023/10/24 06:03:33;;;;;;;3.33;1.00;;;;;;;12.68;52.24;99948.03;4988302;28;20466;-74
2023/10/24 06:06:01;;;;;;;1.55;1.10;;;;;;;12.67;52.26;99943.56;4963901;28;20051;-74
2023/10/24 06:08:29;;;;;;;1.95;1.10;;;;;;;12.67;52.17;99944.44;4979614;28;20189;-74
2023/10/24 06:10:57;;;;;;;3.20;1.20;;;;;;;12.67;52.26;99938.09;4980170;28;20120;-74
2023/10/24 06:13:25;;;;;;;2.72;1.10;;;;;;;12.67;52.29;99935.34;4966158;28;20132;-75
2023/10/24 06:15:55;;;;;;;2.60;1.05;;;;;;;12.68;51.76;99931.56;4984503;28;20647;-74
2023/10/24 06:18:23;;;;;;;2.13;1.17;;;;;;;12.67;52.19;99932.59;4987551;28;20051;-74
2023/10/24 06:20:53;;;;;;;1.90;1.10;;;;;;;12.66;52.27;99931.72;4991233;28;20057;-74
2023/10/24 06:23:23;;;;;;;1.85;0.90;;;;;;;12.67;52.04;99929.84;4989621;28;20060;-74
2023/10/24 06:25:51;;;;;;;2.33;1.20;;;;;;;12.67;51.83;99936.19;4989400;28;20683;-74
2023/10/24 06:28:19;;;;;;;2.83;1.45;;;;;;;12.67;52.18;99935.34;4970224;28;20144;-74
2023/10/24 06:30:47;;;;;;;1.27;0.75;;;;;;;12.67;52.02;99929.84;4988495;28;20521;-74
2023/10/24 06:33:16;;;;;;;1.38;0.95;;;;;;;12.69;52.07;99923.16;4989329;28;20701;-74
2023/10/24 06:35:44;;;;;;;3.85;1.10;;;;;;;12.68;52.37;99934.31;4989211;28;20050;-74
2023/10/24 06:38:12;;;;;;;2.83;1.50;;;;;;;12.68;52.51;99929.69;4987041;28;20672;-74
2023/10/24 06:40:44;;;;;;;3.80;1.50;;;;;;;12.68;52.25;99935.19;4988993;28;20077;-74
2023/10/24 06:43:12;;;;;;;4.13;1.70;;;;;;;12.68;52.12;99953.53;4987874;28;20050;-74
2023/10/24 06:45:42;;;;;;;1.95;1.20;;;;;;;12.70;51.46;99952.34;4970308;28;20124;-74
2023/10/24 06:48:11;;;;;;;1.45;1.00;;;;;;;12.69;51.61;99955.25;4986745;28;20050;-74
2023/10/24 06:50:40;;;;;;;2.15;1.00;;;;;;;12.69;51.46;99939.63;4971225;28;20100;-74
2023/10/24 06:53:13;;;;;;;1.90;1.00;;;;;;;12.67;51.60;99938.94;4986943;28;20050;-74
2023/10/24 06:55:41;;;;;;;1.30;0.80;;;;;;;12.67;51.45;99944.44;4968880;28;20069;-74
2023/10/24 06:58:09;;;;;;;1.90;0.85;;;;;;;12.68;51.81;99931.56;4986428;28;20225;-74
2023/10/24 07:00:37;;;;;;;2.45;0.90;;;;;;;12.68;51.44;99935.19;4968447;28;20169;-74
2023/10/24 07:03:05;;;;;;;2.28;1.10;;;;;;;12.68;51.36;99920.59;4988669;28;20740;-74
2023/10/24 07:05:33;;;;;;;2.75;1.00;;;;;;;12.68;51.91;99915.97;4991767;28;20125;-74
2023/10/24 07:08:03;;;;;;;1.85;1.10;;;;;;;12.70;51.89;99918.53;4987624;28;20216;-74
2023/10/24 07:10:33;;;;;;;1.52;0.85;;;;;;;12.68;51.82;99915.97;4988601;28;20133;-74
2023/10/24 07:13:01;;;;;;;2.22;1.30;;;;;;;12.69;51.30;99922.31;4973452;28;20533;-74
2023/10/24 07:15:29;;;;;;;2.83;1.05;;;;;;;12.68;51.69;99918.69;4970929;28;20050;-74
2023/10/24 07:17:57;;;;;;;2.75;1.20;;;;;;;12.69;51.24;99930.53;4989409;28;20129;-74
2023/10/24 07:20:25;;;;;;;3.15;1.20;;;;;;;12.68;51.28;99920.59;4989463;28;20750;-74
2023/10/24 07:22:53;;;;;;;2.83;1.48;;;;;;;12.69;51.69;99922.31;4973668;28;20065;-75
2023/10/24 07:25:23;;;;;;;3.35;1.20;;;;;;;12.71;51.09;99925.72;4989097;28;20110;-75
2023/10/24 07:27:54;;;;;;;1.83;1.00;;;;;;;12.67;51.32;99932.59;4968093;28;20525;-75
2023/10/24 07:30:22;;;;;;;1.35;0.90;;;;;;;12.70;51.11;99924.03;4971251;28;20053;-73
2023/10/24 07:32:53;;;;;;;1.30;0.80;;;;;;;12.70;51.62;99916.66;4988415;28;20050;-73
2023/10/24 07:35:22;;;;;;;1.15;0.93;;;;;;;12.70;51.28;99919.41;4985956;28;20080;-73
2023/10/24 07:37:50;;;;;;;1.75;0.82;;;;;;;12.71;51.57;99918.34;4969662;28;20052;-73
2023/10/24 07:40:18;;;;;;;1.10;0.73;;;;;;;12.71;51.41;99920.22;4985363;28;20049;-73
2023/10/24 07:42:48;;;;;;;1.70;0.88;;;;;;;12.72;50.74;99922.81;4986718;28;20133;-74
2023/10/24 07:45:16;;;;;;;0.90;0.68;;;;;;;12.70;51.35;99927.63;4989259;28;20061;-73
2023/10/24 07:47:44;;;;;;;1.10;0.70;;;;;;;12.71;51.00;99922.97;4971853;28;20050;-73
2023/10/24 07:50:12;;;;;;;1.33;0.70;;;;;;;12.70;50.97;99938.63;4986968;28;20053;-73
2023/10/24 07:52:40;;;;;;;1.10;0.70;;;;;;;12.70;51.24;99935.88;4986589;28;20072;-73
2023/10/24 07:55:08;;;;;;;0.85;0.68;;;;;;;12.71;51.26;99939.44;4968063;28;20127;-73
2023/10/24 07:57:36;;;;;;;0.93;0.63;;;;;;;12.71;51.18;99929.31;4989657;28;20523;-73
2023/10/24 08:00:08;;;;;;;1.27;0.80;;;;;;;12.73;50.54;99929.16;4968103;28;20061;-74
2023/10/24 08:02:39;;;;;;;1.45;0.80;;;;;;;12.70;50.68;99938.63;4991601;28;20061;-74
2023/10/24 08:05:08;;;;;;;1.50;0.65;;;;;;;12.72;50.99;99943.91;4988891;28;20058;-74
2023/10/24 08:07:37;;;;;;;1.45;0.80;;;;;;;12.71;50.77;99953.16;5066082;23;20078;-74
2023/10/24 08:10:06;;;;;;;1.17;0.60;;;;;;;12.72;50.60;99952.16;4984926;28;20322;-74
2023/10/24 08:12:34;;;;;;;2.60;0.90;;;;;;;12.71;50.89;99956.78;5007842;28;20078;-74
2023/10/24 08:15:02;;;;;;;2.00;0.90;;;;;;;12.72;50.42;99960.38;5006494;28;20052;-75
2023/10/24 08:17:32;;;;;;;1.33;0.80;;;;;;;12.74;50.87;99963.81;4987390;28;20137;-75
2023/10/24 08:20:00;;;;;;;1.70;0.90;;;;;;;12.71;50.37;99950.44;5002248;28;20046;-75
2023/10/24 08:22:28;;;;;;;1.75;0.85;;;;;;;12.72;50.66;99947.50;5007843;28;20046;-75
2023/10/24 08:24:57;;;;;;;1.50;0.75;;;;;;;12.72;50.45;99964.00;5002969;28;20638;-75
2023/10/24 08:27:25;;;;;;;1.17;0.63;;;;;;;12.73;50.52;99964.84;4989542;28;20053;-74
2023/10/24 08:29:53;;;;;;;2.42;0.85;;;;;;;12.74;50.98;99963.81;5004621;28;20060;-75
2023/10/24 08:32:21;;;;;;;1.33;0.82;;;;;;;12.74;51.00;99969.31;4988344;28;20164;-75
2023/10/24 08:34:51;;;;;;;1.60;0.80;;;;;;;12.77;50.89;99969.00;5006443;28;20693;-76
2023/10/24 08:37:19;;;;;;;2.60;0.93;;;;;;;12.74;50.86;99975.66;4987384;28;20136;-75
2023/10/24 08:39:48;;;;;;;0.98;0.75;;;;;;;12.74;50.79;99972.91;5010657;28;20049;-74
2023/10/24 08:42:17;;;;;;;1.00;0.70;;;;;;;12.77;50.64;99988.22;5004230;28;20587;-75
2023/10/24 08:44:47;;;;;;;1.00;0.73;;;;;;;12.78;50.45;99976.19;4987945;28;20667;-75
2023/10/24 08:47:17;;;;;;;1.00;0.70;;;;;;;12.79;50.43;99970.50;5004165;28;20049;-75
2023/10/24 08:49:45;;;;;;;1.20;0.80;;;;;;;12.79;50.98;99981.50;5005067;28;20045;-73
2023/10/24 08:52:15;;;;;;;1.63;0.80;;;;;;;12.81;50.58;99986.81;4987537;28;20049;-76
2023/10/24 08:55:00;;;;;;;1.73;0.80;;;;;;;12.80;50.74;99985.09;5010371;28;20058;-74
2023/10/24 08:57:30;;;;;;;2.10;0.93;;;;;;;12.82;50.86;99991.28;5002739;28;20446;-74
2023/10/24 08:59:59;;;;;;;2.45;0.80;;;;;;;12.83;50.36;99976.53;4985196;28;20049;-75
2023/10/24 09:02:29;;;;;;;1.33;0.80;;;;;;;12.83;50.94;99974.66;4986221;28;20105;-75
2023/10/24 09:04:59;;;;;;;1.33;0.80;;;;;;;12.87;50.80;99980.66;5005934;28;20058;-75
2023/10/24 09:07:29;;;;;;;1.65;0.90;;;;;;;12.88;50.97;99974.97;5004869;28;20100;-75
2023/10/24 09:09:57;;;;;;;2.20;0.88;;;;;;;12.88;50.97;99968.63;4984365;28;20433;-75
2023/10/24 09:12:25;;;;;;;1.55;0.82;;;;;;;12.90;51.05;99974.81;5006032;28;20054;-75
2023/10/24 09:14:53;;;;;;;1.23;0.70;;;;;;;12.91;51.00;99970.19;5003735;28;20148;-75
2023/10/24 09:17:23;;;;;;;2.58;1.02;;;;;;;12.93;50.53;99960.75;5003949;28;20604;-74
2023/10/24 09:19:52;;;;;;;1.33;0.77;;;;;;;12.95;50.70;99958.69;5007221;28;20049;-75
2023/10/24 09:22:20;;;;;;;1.92;0.88;;;;;;;12.98;51.15;99960.22;5007807;28;20037;-74
2023/10/24 09:24:51;;;;;;;9.40;1.27;;;;;;;13.02;50.47;99964.38;5006121;28;20131;-75
2023/10/24 09:27:23;;;;;;;2.03;1.15;;;;;;;13.05;50.91;99969.50;5003515;28;20056;-75
2023/10/24 09:29:52;;;;;;;2.08;0.90;;;;;;;13.03;51.16;99966.94;5002135;28;20540;-75
2023/10/24 09:32:21;;;;;;;0.93;0.70;;;;;;;13.08;50.70;99958.16;4984506;28;20140;-75
2023/10/24 09:34:49;;;;;;;2.05;1.00;;;;;;;13.10;50.79;99956.13;5001233;28;20049;-75
2023/10/24 09:37:17;;;;;;;1.70;0.93;;;;;;;13.12;50.46;99960.38;5001647;28;20081;-74
2023/10/24 09:39:57;;;;;;;2.47;1.08;;;;;;;13.18;50.12;99947.88;4997275;28;20048;-75
2023/10/24 09:42:27;;;;;;;2.15;0.82;;;;;;;13.17;50.63;99944.25;4982577;28;20046;-74
2023/10/24 09:45:02;;;;;;;2.15;1.00;;;;;;;13.20;50.43;99943.06;4981713;28;20152;-75
2023/10/24 09:47:32;;;;;;;2.00;0.80;;;;;;;13.21;50.76;99942.88;5002471;28;20568;-75
2023/10/24 09:50:01;;;;;;;1.65;0.82;;;;;;;13.23;50.80;99945.44;5000640;28;20136;-74
2023/10/24 09:52:30;;;;;;;2.22;1.00;;;;;;;13.25;50.33;99937.91;5004304;28;20096;-75
2023/10/24 09:55:00;;;;;;;1.77;0.90;;;;;;;13.29;50.03;99941.13;5002118;28;20120;-74
2023/10/24 09:57:29;;;;;;;1.80;1.00;;;;;;;13.29;50.66;99939.25;5009839;28;20057;-74
2023/10/24 10:00:00;;;;;;;1.45;0.80;;;;;;;13.32;50.38;99933.41;4984929;28;20460;-74
2023/10/24 10:02:28;;;;;;;1.65;0.80;;;;;;;13.33;50.69;99928.78;4982197;28;20185;-74
2023/10/24 10:04:56;;;;;;;1.30;0.80;;;;;;;13.35;50.72;99929.47;4998553;28;20172;-74
2023/10/24 10:07:26;;;;;;;2.00;0.90;;;;;;;13.39;50.61;99930.81;4984588;28;20056;-74
2023/10/24 10:09:55;;;;;;;2.38;1.00;;;;;;;13.41;50.63;99929.63;4999280;28;20051;-74
2023/10/24 10:12:27;;;;;;;2.88;1.10;;;;;;;13.45;50.72;99921.84;5001292;28;20050;-74
2023/10/24 10:15:15;;;;;;;1.50;0.80;;;;;;;13.47;50.12;99909.66;5000336;28;20068;-75
2023/10/24 10:17:52;;;;;;;2.13;0.93;;;;;;;13.54;49.82;99905.16;4985603;28;20474;-73
2023/10/24 10:20:43;;;;;;;1.60;0.95;;;;;;;13.59;49.35;99910.19;4980216;28;20839;-75
2023/10/24 10:23:31;;;;;;;2.13;0.80;;;;;;;13.66;49.74;99902.94;5003757;28;20501;-74
2023/10/24 10:26:07;;;;;;;1.70;0.80;;;;;;;13.72;50.08;99910.47;4998126;28;20050;-75
2023/10/24 10:28:55;;;;;;;1.65;0.90;;;;;;;13.77;49.24;99910.81;5001406;28;20176;-74
2023/10/24 10:31:43;;;;;;;1.67;0.75;;;;;;;13.83;49.49;99903.75;4998787;28;20070;-74
2023/10/24 10:34:35;;;;;;;1.52;0.90;;;;;;;13.86;49.44;99904.22;5003082;28;20049;-74
2023/10/24 10:37:03;;;;;;;1.70;0.80;;;;;;;13.87;49.63;99894.94;5002313;28;20393;-75
2023/10/24 10:39:32;;;;;;;1.48;0.95;;;;;;;13.93;49.59;99890.63;4998094;28;20042;-75
2023/10/24 10:42:01;;;;;;;1.65;1.10;;;;;;;13.96;49.70;99915.88;5002730;28;20103;-74
2023/10/24 10:44:38;;;;;;;1.27;0.82;;;;;;;14.01;48.31;99904.34;4983678;28;20104;-75
2023/10/24 10:47:14;;;;;;;3.37;1.00;;;;;;;14.00;49.30;99891.63;5006968;28;20057;-74
2023/10/24 10:49:44;;;;;;;0.70;0.60;;;;;;;13.99;48.87;99890.75;4989342;28;20421;-75
2023/10/24 10:52:23;;;;;;;2.45;0.90;;;;;;;14.05;48.50;99891.06;5013064;28;20060;-75
2023/10/24 10:54:59;;;;;;;2.25;1.02;;;;;;;14.04;48.41;99889.34;4991090;28;20729;-75
2023/10/24 10:57:30;;;;;;;1.23;0.80;;;;;;;14.04;48.45;99890.22;5011305;28;20061;-74
2023/10/24 11:00:04;;;;;;;2.28;0.90;;;;;;;14.04;48.22;99884.72;4990585;28;20085;-75
2023/10/24 11:02:52;;;;;;;1.65;1.00;;;;;;;14.04;47.75;99884.72;4993977;28;20060;-75
2023/10/24 11:05:48;;;;;;;2.25;1.00;;;;;;;14.01;48.19;99885.09;4997629;28;20056;-75
2023/10/24 11:08:19;;;;;;;2.40;1.00;;;;;;;14.01;48.28;99882.34;4985293;28;20081;-75
2023/10/24 11:10:56;;;;;;;1.67;0.90;;;;;;;14.03;47.72;99880.25;5007205;28;20058;-74
2023/10/24 11:13:43;;;;;;;1.40;0.70;;;;;;;13.99;48.05;99887.16;5011254;28;20243;-75
2023/10/24 11:16:15;;;;;;;1.98;0.90;;;;;;;14.00;48.44;99886.13;5009761;28;20763;-76
2023/10/24 11:18:46;;;;;;;1.52;0.90;;;;;;;13.98;48.66;99878.03;5008238;28;21208;-75
2023/10/24 11:21:16;;;;;;;1.17;0.90;;;;;;;13.99;48.71;99865.16;5008374;28;20056;-75
2023/10/24 11:23:45;;;;;;;1.67;1.00;;;;;;;13.97;48.31;99862.56;5010804;28;20478;-75
2023/10/24 11:26:14;;;;;;;1.73;0.88;;;;;;;13.96;48.80;99858.09;5009273;28;21312;-75
2023/10/24 11:28:43;;;;;;;2.45;1.00;;;;;;;13.96;48.85;99860.84;4991229;28;20057;-75
2023/10/24 11:31:23;;;;;;;2.03;1.02;;;;;;;13.98;48.25;99860.69;5005540;28;20045;-74
2023/10/24 11:33:52;;;;;;;2.45;1.08;;;;;;;13.95;48.72;99855.53;5010517;28;20976;-74
2023/10/24 11:36:20;;;;;;;1.90;1.00;;;;;;;13.95;48.65;99850.88;5008703;28;20053;-74
2023/10/24 11:38:49;;;;;;;2.78;1.25;;;;;;;13.96;48.74;99854.50;4990914;28;20482;-76
2023/10/24 11:41:17;;;;;;;2.65;1.15;;;;;;;13.95;48.99;99847.28;5011858;28;20156;-74
2023/10/24 11:43:47;;;;;;;2.53;1.20;;;;;;;13.95;48.67;99850.88;5010048;28;20046;-74
2023/10/24 11:46:16;;;;;;;1.80;1.10;;;;;;;13.94;48.68;99854.66;5005080;28;20068;-74